Time;durP1;ratioP1;P1;durP2;ratioP2;P2;SDS_P1;SDS_P2;PMS_P1;PMS_P2;Temp;Humidity;BMP_temperature;BMP_pressure;BME280_temperature;BME280_humidity;BME280_pressure;Samples;Min_cycle;Max_cycle;Signal;HPM_P1;HPM_P2
2023/04/04 00:01:09;;;;;;;2.20;2.00;;;0.40;99.90;;;;;;5023999;28;20021;-80
2023/04/04 00:03:34;;;;;;;4.97;2.53;;;0.40;99.90;;;;;;5022943;28;20034;-80
2023/04/04 00:06:00;;;;;;;4.13;2.40;;;0.40;99.90;;;;;;5020762;28;20046;-80
2023/04/04 00:08:25;;;;;;;5.15;2.40;;;0.60;99.90;;;;;;5022159;28;20014;-80
2023/04/04 00:10:57;;;;;;;8.45;2.55;;;0.50;99.90;;;;;;5025596;28;20446;-80
2023/04/04 00:13:26;;;;;;;6.18;2.80;;;0.60;99.90;;;;;;5023318;28;20037;-81
2023/04/04 00:15:53;;;;;;;10.68;4.00;;;0.60;99.90;;;;;;5026853;28;20104;-80
2023/04/04 00:18:18;;;;;;;7.25;3.53;;;0.60;99.90;;;;;;5021715;28;20112;-80
2023/04/04 00:20:44;;;;;;;13.02;4.82;;;0.60;99.90;;;;;;5017872;28;20117;-80
2023/04/04 00:23:10;;;;;;;27.58;8.77;;;0.60;99.90;;;;;;5026481;28;20037;-80
2023/04/04 00:25:36;;;;;;;22.45;7.07;;;0.60;99.90;;;;;;5022115;28;20041;-79
2023/04/04 00:28:02;;;;;;;22.38;7.18;;;0.70;99.90;;;;;;5024447;28;20129;-80
2023/04/04 00:30:29;;;;;;;23.50;8.43;;;0.70;99.90;;;;;;5024647;28;20029;-80
2023/04/04 00:32:55;;;;;;;61.53;18.15;;;0.70;99.90;;;;;;5020941;28;20034;-80
2023/04/04 00:35:22;;;;;;;74.20;22.85;;;0.70;99.90;;;;;;5025192;28;20025;-81
2023/04/04 00:37:48;;;;;;;66.95;19.83;;;0.70;99.90;;;;;;5023203;28;20044;-80
2023/04/04 00:40:17;;;;;;;50.67;16.17;;;0.70;99.90;;;;;;5025453;28;20033;-82
2023/04/04 00:42:42;;;;;;;28.60;10.77;;;0.70;99.90;;;;;;5021230;28;20366;-80
2023/04/04 00:45:08;;;;;;;33.90;9.82;;;0.80;99.90;;;;;;5025609;28;20132;-80
2023/04/04 00:47:35;;;;;;;29.23;9.15;;;0.70;99.90;;;;;;5018968;28;20481;-80
2023/04/04 00:50:01;;;;;;;23.70;8.30;;;0.70;99.90;;;;;;5019162;28;20040;-81
2023/04/04 00:52:27;;;;;;;26.33;9.77;;;0.80;99.90;;;;;;5026102;28;20029;-80
2023/04/04 00:54:55;;;;;;;26.10;9.27;;;0.70;99.90;;;;;;5024038;28;20068;-80
2023/04/04 00:57:23;;;;;;;41.05;11.93;;;0.70;99.90;;;;;;5022737;28;20434;-80
2023/04/04 00:59:49;;;;;;;23.77;9.68;;;0.70;99.90;;;;;;5022125;28;20067;-81
2023/04/04 01:02:15;;;;;;;13.35;4.78;;;0.80;99.90;;;;;;5017761;28;20054;-80
2023/04/04 01:04:41;;;;;;;10.27;3.75;;;0.80;99.90;;;;;;5015416;28;20560;-80
2023/04/04 01:07:07;;;;;;;12.45;3.60;;;0.80;99.90;;;;;;5018828;28;20394;-80
2023/04/04 01:09:33;;;;;;;9.02;4.20;;;0.80;99.90;;;;;;5010997;28;20040;-80
2023/04/04 01:11:59;;;;;;;6.50;3.67;;;0.80;99.90;;;;;;5024972;28;20492;-80
2023/04/04 01:14:24;;;;;;;6.10;2.95;;;0.80;99.90;;;;;;5020271;28;20109;-80
2023/04/04 01:16:51;;;;;;;6.07;3.22;;;0.80;99.90;;;;;;5014647;28;20128;-80
2023/04/04 01:19:29;;;;;;;13.75;3.97;;;0.80;99.90;;;;;;5020936;28;20052;-80
2023/04/04 01:21:56;;;;;;;6.93;2.90;;;0.80;99.90;;;;;;5016802;28;20040;-80
2023/04/04 01:24:23;;;;;;;4.28;2.70;;;0.80;99.90;;;;;;5023031;28;20161;-80
2023/04/04 01:26:49;;;;;;;7.57;2.42;;;0.80;99.90;;;;;;5024337;28;20037;-80
2023/04/04 01:29:15;;;;;;;5.50;2.50;;;0.80;99.90;;;;;;5021762;28;20041;-80
2023/04/04 01:31:46;;;;;;;4.03;2.47;;;0.80;99.90;;;;;;5022464;28;20032;-80
2023/04/04 01:34:19;;;;;;;6.85;2.97;;;0.80;99.90;;;;;;5021707;28;20025;-80
2023/04/04 01:37:01;;;;;;;4.32;2.65;;;0.90;99.90;;;;;;5020921;28;20047;-80
2023/04/04 01:39:38;;;;;;;3.60;2.42;;;0.90;99.90;;;;;;5017621;28;20025;-80
2023/04/04 01:42:06;;;;;;;3.47;2.22;;;0.80;99.90;;;;;;5021043;28;20021;-80
2023/04/04 01:44:32;;;;;;;5.20;1.83;;;0.80;99.90;;;;;;5022009;28;20490;-82
2023/04/04 01:46:58;;;;;;;5.97;2.70;;;0.80;99.90;;;;;;5012780;28;20087;-80
2023/04/04 01:49:24;;;;;;;5.40;3.33;;;0.80;99.90;;;;;;5021456;28;20033;-80
2023/04/04 01:51:51;;;;;;;5.88;3.10;;;0.80;99.90;;;;;;5024686;28;20033;-80
2023/04/04 01:54:18;;;;;;;4.28;2.22;;;0.80;99.90;;;;;;5020899;28;20068;-81
2023/04/04 01:56:44;;;;;;;7.93;2.70;;;0.80;99.90;;;;;;5014608;28;20033;-80
2023/04/04 01:59:10;;;;;;;7.78;3.13;;;0.70;99.90;;;;;;5019607;28;20033;-80
2023/04/04 02:01:36;;;;;;;4.18;2.58;;;0.70;99.90;;;;;;5016848;28;20026;-80
2023/04/04 02:04:02;;;;;;;7.35;2.65;;;0.70;99.90;;;;;;5024443;28;20030;-80
2023/04/04 02:06:28;;;;;;;7.25;2.65;;;0.70;99.90;;;;;;5013925;28;20049;-81
2023/04/04 02:08:55;;;;;;;7.05;2.88;;;0.70;99.90;;;;;;5024926;28;20520;-80
2023/04/04 02:11:21;;;;;;;10.75;2.90;;;0.80;99.90;;;;;;5010922;28;20080;-81
2023/04/04 02:13:48;;;;;;;3.75;2.75;;;0.80;99.90;;;;;;5017513;28;20041;-81
2023/04/04 02:16:17;;;;;;;5.13;2.67;;;0.70;99.90;;;;;;5021215;28;20025;-82
2023/04/04 02:18:42;;;;;;;3.85;2.35;;;0.70;99.90;;;;;;5024875;28;20355;-80
2023/04/04 02:21:08;;;;;;;5.60;3.10;;;0.70;99.90;;;;;;5024960;28;20041;-80
2023/04/04 02:23:34;;;;;;;5.97;2.78;;;0.70;99.90;;;;;;5023371;28;20437;-82
2023/04/04 02:25:59;;;;;;;8.10;3.00;;;0.70;99.90;;;;;;5025567;28;20033;-80
2023/04/04 02:28:27;;;;;;;3.88;2.80;;;0.70;99.90;;;;;;5025141;28;20038;-81
2023/04/04 02:30:53;;;;;;;6.15;2.80;;;0.70;99.90;;;;;;5026017;28;20033;-81
2023/04/04 02:33:18;;;;;;;6.88;2.75;;;0.70;99.90;;;;;;5026045;28;20033;-81
2023/04/04 02:35:44;;;;;;;2.50;2.28;;;0.70;99.90;;;;;;5024868;28;20112;-80
2023/04/04 02:38:10;;;;;;;12.07;3.45;;;0.70;99.90;;;;;;5025059;28;20033;-80
2023/04/04 02:40:38;;;;;;;6.03;3.33;;;0.60;99.90;;;;;;5028011;28;20261;-80
2023/04/04 02:43:04;;;;;;;5.70;2.85;;;0.60;99.90;;;;;;5025612;28;20038;-80
2023/04/04 02:45:29;;;;;;;2.55;2.35;;;0.60;99.90;;;;;;5027552;28;20095;-80
2023/04/04 02:47:56;;;;;;;5.40;2.28;;;0.60;99.90;;;;;;5025061;28;20159;-80
2023/04/04 02:50:22;;;;;;;6.57;2.42;;;0.60;99.90;;;;;;5025720;28;20101;-80
2023/04/04 02:52:47;;;;;;;5.43;2.78;;;0.60;99.90;;;;;;5023650;28;20037;-80
2023/04/04 02:55:13;;;;;;;7.72;3.00;;;0.50;99.90;;;;;;5025067;28;20025;-80
2023/04/04 02:57:39;;;;;;;7.78;3.38;;;0.50;99.90;;;;;;5024458;28;20037;-81
2023/04/04 03:00:06;;;;;;;9.35;3.08;;;0.50;99.90;;;;;;5024561;28;20436;-80
2023/04/04 03:02:32;;;;;;;7.93;2.80;;;0.50;99.90;;;;;;5023467;28;20109;-81
2023/04/04 03:04:57;;;;;;;10.68;3.70;;;0.50;99.90;;;;;;5026398;28;20045;-80
2023/04/04 03:07:23;;;;;;;5.28;2.90;;;0.50;99.90;;;;;;5022962;28;20028;-80
2023/04/04 03:09:48;;;;;;;8.25;2.60;;;0.50;99.90;;;;;;5020187;28;20040;-80
2023/04/04 03:12:20;;;;;;;5.25;2.67;;;0.40;99.90;;;;;;5025453;28;20127;-81
2023/04/04 03:14:45;;;;;;;5.40;2.85;;;0.40;99.90;;;;;;5022651;28;20022;-80
2023/04/04 03:17:16;;;;;;;4.00;2.85;;;0.40;99.90;;;;;;5020415;28;20029;-82
2023/04/04 03:19:42;;;;;;;4.13;2.28;;;0.40;99.90;;;;;;5016174;28;20057;-80
2023/04/04 03:22:10;;;;;;;2.70;2.33;;;0.40;99.90;;;;;;5023885;28;20506;-82
2023/04/04 03:24:36;;;;;;;8.80;3.20;;;0.40;99.90;;;;;;5022052;28;20041;-80
2023/04/04 03:27:02;;;;;;;5.53;3.08;;;0.30;99.90;;;;;;5020798;28;20084;-81
2023/04/04 03:29:27;;;;;;;3.42;2.47;;;0.30;99.90;;;;;;5017344;28;20056;-80
2023/04/04 03:31:53;;;;;;;5.93;2.70;;;0.30;99.90;;;;;;5023775;28;20022;-80
2023/04/04 03:34:19;;;;;;;3.08;2.67;;;0.30;99.90;;;;;;5022129;28;20136;-80
2023/04/04 03:36:47;;;;;;;3.88;2.53;;;0.20;99.90;;;;;;5026176;28;20037;-80
2023/04/04 03:39:13;;;;;;;5.72;2.53;;;0.30;99.90;;;;;;5020240;28;20067;-80
2023/04/04 03:41:39;;;;;;;7.18;3.00;;;0.20;99.90;;;;;;5019532;28;20097;-80
2023/04/04 03:44:05;;;;;;;6.05;2.83;;;0.20;99.90;;;;;;5024757;28;20034;-80
2023/04/04 03:46:30;;;;;;;6.82;2.90;;;0.20;99.90;;;;;;5020905;28;20033;-81
2023/04/04 03:48:56;;;;;;;7.75;2.80;;;0.10;99.90;;;;;;5023037;28;20121;-80
2023/04/04 03:51:26;;;;;;;5.63;3.00;;;0.10;99.90;;;;;;5024856;28;20026;-80
2023/04/04 03:53:52;;;;;;;7.22;3.30;;;0.00;99.90;;;;;;5026696;28;20509;-80
2023/04/04 03:56:18;;;;;;;10.65;3.08;;;0.00;99.90;;;;;;5023335;28;20029;-81
2023/04/04 03:58:47;;;;;;;7.20;3.33;;;0.00;99.90;;;;;;5010666;28;20065;-82
2023/04/04 04:01:12;;;;;;;8.60;2.92;;;0.10;99.90;;;;;;5022629;28;20402;-80
2023/04/04 04:03:38;;;;;;;7.75;3.08;;;0.10;99.90;;;;;;5020747;28;20021;-81
2023/04/04 04:06:04;;;;;;;5.25;3.17;;;0.00;99.90;;;;;;5019070;28;20514;-80
2023/04/04 04:08:29;;;;;;;5.93;3.15;;;0.00;99.90;;;;;;5020068;28;20060;-80
2023/04/04 04:10:55;;;;;;;7.30;2.67;;;-0.10;99.90;;;;;;5025237;28;20053;-80
2023/04/04 04:13:21;;;;;;;7.95;3.13;;;-0.20;99.90;;;;;;5019977;28;20469;-80
2023/04/04 04:15:49;;;;;;;7.43;3.22;;;-0.20;99.90;;;;;;5022251;28;20111;-82
2023/04/04 04:18:15;;;;;;;7.68;3.72;;;-0.30;99.90;;;;;;5021719;28;20509;-81
2023/04/04 04:20:40;;;;;;;5.88;3.15;;;-0.30;99.90;;;;;;5014173;28;20038;-81
2023/04/04 04:23:07;;;;;;;7.05;3.10;;;-0.40;99.90;;;;;;5020523;28;20087;-81
2023/04/04 04:25:33;;;;;;;7.18;2.95;;;-0.40;99.90;;;;;;5017394;28;20041;-81
2023/04/04 04:27:58;;;;;;;4.50;2.80;;;-0.40;99.90;;;;;;5017107;28;20098;-80
2023/04/04 04:30:24;;;;;;;4.75;2.85;;;-0.50;99.90;;;;;;5020582;28;20144;-81
2023/04/04 04:32:50;;;;;;;6.07;2.95;;;-0.50;99.90;;;;;;5011957;28;20367;-81
2023/04/04 04:35:15;;;;;;;5.82;2.45;;;-0.50;99.90;;;;;;5018766;28;20549;-81
2023/04/04 04:37:41;;;;;;;6.28;2.50;;;-0.60;99.90;;;;;;5022681;28;20089;-81
2023/04/04 04:40:07;;;;;;;3.47;2.75;;;-0.60;99.90;;;;;;5021249;28;20065;-81
2023/04/04 04:42:33;;;;;;;5.93;2.70;;;-0.60;99.90;;;;;;5011552;28;20753;-81
2023/04/04 04:45:02;;;;;;;6.78;4.63;;;-0.60;99.90;;;;;;5017878;28;20448;-84
2023/04/04 04:47:30;;;;;;;9.90;4.57;;;-0.60;99.90;;;;;;5019475;28;20490;-82
2023/04/04 04:49:55;;;;;;;9.52;4.78;;;-0.60;99.90;;;;;;5015958;28;20368;-81
2023/04/04 04:52:24;;;;;;;13.02;6.32;;;-0.60;99.90;;;;;;5023600;28;20037;-84
2023/04/04 04:54:50;;;;;;;7.82;5.20;;;-0.60;99.90;;;;;;5021793;28;20036;-81
2023/04/04 04:57:16;;;;;;;11.95;5.57;;;-0.60;99.90;;;;;;5022738;28;20033;-82
2023/04/04 04:59:41;;;;;;;9.15;5.35;;;-0.60;99.90;;;;;;5025115;28;22529;-82
2023/04/04 05:02:07;;;;;;;9.85;5.50;;;-0.60;99.90;;;;;;5018385;28;20072;-81
2023/04/04 05:04:33;;;;;;;10.27;5.95;;;-0.60;99.90;;;;;;5022964;28;20112;-82
2023/04/04 05:06:58;;;;;;;17.08;7.13;;;-0.70;99.90;;;;;;5011237;28;20100;-82
2023/04/04 05:09:24;;;;;;;9.65;6.25;;;-0.70;99.90;;;;;;5021422;28;20029;-82
2023/04/04 05:11:49;;;;;;;19.05;7.13;;;-0.60;99.90;;;;;;5018064;28;20033;-82
2023/04/04 05:14:15;;;;;;;14.50;7.43;;;-0.60;99.90;;;;;;5018761;28;20026;-83
2023/04/04 05:16:42;;;;;;;19.50;7.90;;;-0.60;99.90;;;;;;5019191;28;20422;-84
2023/04/04 05:19:07;;;;;;;14.23;7.45;;;-0.70;99.90;;;;;;5020134;28;20037;-82
2023/04/04 05:21:33;;;;;;;14.10;6.57;;;-0.60;99.90;;;;;;5021080;28;20226;-82
2023/04/04 05:23:58;;;;;;;18.50;7.75;;;-0.60;99.90;;;;;;5015333;28;20022;-82
2023/04/04 05:26:24;;;;;;;19.90;7.32;;;-0.60;99.90;;;;;;5021273;28;20052;-82
2023/04/04 05:28:50;;;;;;;17.13;7.45;;;-0.60;99.90;;;;;;5022826;28;20398;-82
2023/04/04 05:31:16;;;;;;;9.55;5.43;;;-0.60;99.90;;;;;;5015672;28;20026;-82
2023/04/04 05:33:41;;;;;;;10.52;5.88;;;-0.50;99.90;;;;;;5022867;28;20036;-82
2023/04/04 05:36:07;;;;;;;15.45;6.15;;;-0.50;99.90;;;;;;5020676;28;20029;-82
2023/04/04 05:38:32;;;;;;;9.00;4.95;;;-0.50;99.90;;;;;;5021376;28;20026;-82
2023/04/04 05:40:58;;;;;;;7.22;5.28;;;-0.50;99.90;;;;;;5023352;28;20482;-82
2023/04/04 05:43:24;;;;;;;11.10;4.50;;;-0.40;99.90;;;;;;5019017;28;20439;-82
2023/04/04 05:45:49;;;;;;;7.18;4.28;;;-0.40;99.90;;;;;;5014575;28;20188;-82
2023/04/04 05:48:18;;;;;;;10.85;3.88;;;-0.30;99.90;;;;;;5019950;28;20426;-84
2023/04/04 05:50:45;;;;;;;6.30;4.20;;;-0.30;99.90;;;;;;5021585;28;20029;-83
2023/04/04 05:53:11;;;;;;;8.52;4.07;;;-0.30;99.90;;;;;;5023895;28;20028;-82
2023/04/04 05:55:39;;;;;;;10.70;4.15;;;-0.20;99.90;;;;;;5016975;28;20213;-85
2023/04/04 05:58:05;;;;;;;14.20;4.75;;;-0.20;99.90;;;;;;5019471;28;20356;-82
2023/04/04 06:00:32;;;;;;;11.07;4.30;;;-0.10;99.90;;;;;;5019872;28;20056;-82
2023/04/04 06:02:58;;;;;;;10.90;5.45;;;-0.10;99.90;;;;;;5021209;28;20030;-82
2023/04/04 06:05:24;;;;;;;11.63;4.88;;;-0.10;99.90;;;;;;5018609;28;20048;-82
2023/04/04 06:07:49;;;;;;;14.70;4.90;;;0.00;99.90;;;;;;5020013;28;20033;-83
2023/04/04 06:10:15;;;;;;;11.88;4.25;;;0.00;99.90;;;;;;5020643;28;20116;-83
2023/04/04 06:12:41;;;;;;;16.55;5.68;;;0.10;99.90;;;;;;5018739;28;20032;-82
2023/04/04 06:15:07;;;;;;;10.10;4.95;;;0.10;99.90;;;;;;5019892;28;20037;-82
2023/04/04 06:17:33;;;;;;;10.50;4.13;;;0.10;99.90;;;;;;5019468;28;20025;-83
2023/04/04 06:20:05;;;;;;;7.40;4.00;;;0.10;99.90;;;;;;5017188;28;20543;-84
2023/04/04 06:22:31;;;;;;;9.07;3.58;;;0.10;99.90;;;;;;5019884;28;20478;-83
2023/04/04 06:24:56;;;;;;;15.35;4.03;;;0.10;99.90;;;;;;5018130;28;20025;-82
2023/04/04 06:27:22;;;;;;;13.35;4.72;;;0.20;99.90;;;;;;5012523;28;20029;-82
2023/04/04 06:29:48;;;;;;;18.55;5.93;;;0.20;99.90;;;;;;5018351;28;20046;-82
2023/04/04 06:32:14;;;;;;;11.55;4.57;;;0.20;99.90;;;;;;5013411;28;20034;-82
2023/04/04 06:34:40;;;;;;;11.20;3.55;;;0.20;99.90;;;;;;5023115;28;20030;-82
2023/04/04 06:37:05;;;;;;;14.20;4.78;;;0.20;99.90;;;;;;5016300;28;20502;-82
2023/04/04 06:39:33;;;;;;;15.45;4.85;;;0.20;99.90;;;;;;5021012;28;20026;-83
2023/04/04 06:41:59;;;;;;;7.97;3.83;;;0.30;99.90;;;;;;5017520;28;20034;-82
2023/04/04 06:44:25;;;;;;;7.97;4.00;;;0.30;99.90;;;;;;5015147;28;20024;-82
2023/04/04 06:46:50;;;;;;;10.38;3.75;;;0.30;99.90;;;;;;5017672;28;20037;-82
2023/04/04 06:49:16;;;;;;;15.13;6.30;;;0.30;99.90;;;;;;5018908;28;20116;-83
2023/04/04 06:51:41;;;;;;;6.70;4.38;;;0.30;99.90;;;;;;5024068;28;20025;-82
2023/04/04 06:54:07;;;;;;;11.13;4.45;;;0.30;99.90;;;;;;5021529;28;20381;-82
2023/04/04 06:56:33;;;;;;;12.02;4.25;;;0.40;99.90;;;;;;5018725;28;20025;-81
2023/04/04 06:58:58;;;;;;;11.50;4.45;;;0.40;99.90;;;;;;5023042;28;20115;-81
2023/04/04 07:01:25;;;;;;;10.82;4.70;;;0.40;99.90;;;;;;5020852;28;20018;-82
2023/04/04 07:04:33;;;;;;;;;;;0.40;99.90;;;;;;5079971;27;20463;-82
2023/04/04 07:06:59;;;;;;;12.82;5.07;;;0.50;99.90;;;;;;5078525;28;19908;-81
2023/04/04 07:09:24;;;;;;;12.95;5.40;;;0.60;99.90;;;;;;5080773;28;20035;-81
2023/04/04 07:11:50;;;;;;;12.77;4.53;;;0.60;99.90;;;;;;5082553;28;20052;-81
2023/04/04 07:14:15;;;;;;;9.65;4.45;;;0.60;99.90;;;;;;5081743;28;20474;-82
2023/04/04 07:16:42;;;;;;;10.63;3.78;;;0.60;99.90;;;;;;5080595;28;20075;-84
2023/04/04 07:19:07;;;;;;;8.85;4.57;;;0.70;99.90;;;;;;5075796;28;20029;-81
2023/04/04 07:21:33;;;;;;;22.17;4.88;;;0.70;99.90;;;;;;5073932;28;20024;-82
2023/04/04 07:24:01;;;;;;;12.40;4.07;;;0.80;99.90;;;;;;5112543;27;20675;-81
2023/04/04 07:26:26;;;;;;;11.43;4.65;;;0.80;99.90;;;;;;5076302;28;20024;-82
2023/04/04 07:28:52;;;;;;;14.27;5.00;;;0.80;99.90;;;;;;5085508;28;20494;-81
2023/04/04 07:31:17;;;;;;;12.30;6.18;;;0.90;99.90;;;;;;5081508;28;20028;-82
2023/04/04 07:33:43;;;;;;;13.70;5.82;;;0.90;99.90;;;;;;5085049;28;20491;-82
2023/04/04 07:36:09;;;;;;;13.30;6.25;;;1.00;99.90;;;;;;5081074;28;20040;-82
2023/04/04 07:38:35;;;;;;;13.15;5.88;;;1.10;99.90;;;;;;5078765;28;20029;-82
2023/04/04 07:41:00;;;;;;;10.45;5.63;;;1.10;99.90;;;;;;5078794;28;20388;-83
2023/04/04 07:43:26;;;;;;;16.35;5.78;;;1.10;99.90;;;;;;5082211;28;20044;-82
2023/04/04 07:45:53;;;;;;;11.93;5.20;;;1.20;99.90;;;;;;5084267;28;20031;-82
2023/04/04 07:48:19;;;;;;;12.60;5.35;;;1.30;99.90;;;;;;5092024;28;20492;-81
2023/04/04 07:50:45;;;;;;;16.52;5.60;;;1.30;99.90;;;;;;5076659;28;20029;-83
2023/04/04 07:53:10;;;;;;;19.15;5.80;;;1.20;99.90;;;;;;5075212;28;20486;-82
2023/04/04 07:55:36;;;;;;;11.50;5.72;;;1.20;99.90;;;;;;5082718;28;20020;-82
2023/04/04 07:58:05;;;;;;;11.10;5.15;;;1.30;99.90;;;;;;5081768;28;20062;-84
2023/04/04 08:00:31;;;;;;;14.25;5.45;;;1.30;99.90;;;;;;5077246;28;20105;-83
2023/04/04 08:03:00;;;;;;;13.20;5.55;;;1.40;99.90;;;;;;5078712;28;20139;-82
2023/04/04 08:05:26;;;;;;;10.90;5.32;;;1.40;99.90;;;;;;5080320;28;20028;-82
2023/04/04 08:07:53;;;;;;;18.25;5.30;;;1.50;99.90;;;;;;5080907;28;20439;-82
2023/04/04 08:10:20;;;;;;;19.45;5.50;;;1.50;99.90;;;;;;5077486;28;20028;-83
2023/04/04 08:12:46;;;;;;;10.45;5.32;;;1.60;99.90;;;;;;5080999;28;20025;-84
2023/04/04 08:15:12;;;;;;;14.60;6.43;;;1.60;99.90;;;;;;5065365;28;20036;-83
2023/04/04 08:18:04;;;;;;;15.50;7.40;;;1.60;99.90;;;;;;5055576;28;20029;-85
2023/04/04 08:20:30;;;;;;;9.75;5.22;;;1.70;99.90;;;;;;5059348;28;20059;-84
2023/04/04 08:22:57;;;;;;;22.95;8.30;;;1.70;99.90;;;;;;5063488;28;20036;-83
2023/04/04 08:25:23;;;;;;;18.50;6.72;;;1.80;99.90;;;;;;5065953;28;20042;-83
2023/04/04 08:27:48;;;;;;;14.43;5.40;;;1.80;99.90;;;;;;5063511;28;20483;-84
2023/04/04 08:30:14;;;;;;;10.57;4.72;;;1.90;99.90;;;;;;5065704;28;20454;-84
2023/04/04 08:32:43;;;;;;;12.80;5.05;;;1.90;99.90;;;;;;5064424;28;20024;-85
2023/04/04 08:35:08;;;;;;;22.90;5.95;;;2.00;99.90;;;;;;5064640;28;20520;-84
2023/04/04 08:37:34;;;;;;;14.23;5.13;;;1.90;99.90;;;;;;5067798;28;20088;-83
2023/04/04 08:40:01;;;;;;;13.13;4.38;;;2.00;99.90;;;;;;5064035;28;20029;-83
2023/04/04 08:42:29;;;;;;;15.88;5.57;;;1.90;99.90;;;;;;5060823;28;20036;-83
2023/04/04 08:44:58;;;;;;;9.45;4.35;;;2.00;99.90;;;;;;5064701;28;20024;-83
2023/04/04 08:47:25;;;;;;;15.55;5.30;;;2.00;99.90;;;;;;5064190;28;20023;-83
2023/04/04 08:49:53;;;;;;;14.35;5.35;;;2.10;99.90;;;;;;5064323;28;20033;-84
2023/04/04 08:52:21;;;;;;;11.50;4.53;;;2.20;99.90;;;;;;5063739;28;20054;-84
2023/04/04 08:54:49;;;;;;;11.27;4.75;;;2.30;99.90;;;;;;5061587;28;20028;-83
2023/04/04 08:57:16;;;;;;;16.67;5.35;;;2.30;99.90;;;;;;5063327;28;20112;-85
2023/04/04 08:59:42;;;;;;;15.65;5.55;;;2.40;99.90;;;;;;5065499;28;20039;-83
2023/04/04 09:02:07;;;;;;;11.18;4.85;;;2.40;99.90;;;;;;5061589;28;20043;-83
2023/04/04 09:04:33;;;;;;;10.55;5.50;;;2.50;99.90;;;;;;5060838;28;20067;-83
2023/04/04 09:07:01;;;;;;;17.83;5.47;;;2.50;99.90;;;;;;5062380;28;20077;-83
2023/04/04 09:09:27;;;;;;;8.48;4.93;;;2.50;99.90;;;;;;5068051;28;20040;-83
2023/04/04 09:11:53;;;;;;;11.70;5.35;;;2.60;99.90;;;;;;5063906;28;20017;-83
2023/04/04 09:14:20;;;;;;;11.55;4.88;;;2.60;99.90;;;;;;5065349;28;20032;-82
2023/04/04 09:16:45;;;;;;;6.03;3.03;;;2.70;99.90;;;;;;5065833;28;20355;-84
2023/04/04 09:19:11;;;;;;;4.65;2.38;;;2.70;99.90;;;;;;5065568;28;20017;-84
2023/04/04 09:21:37;;;;;;;11.73;2.72;;;2.70;99.90;;;;;;5064353;28;20671;-83
2023/04/04 09:24:03;;;;;;;5.53;2.85;;;2.80;99.90;;;;;;5066539;28;20047;-83
2023/04/04 09:26:50;;;;;;;12.35;3.53;;;2.80;99.90;;;;;;5060514;28;20427;-83
2023/04/04 09:29:20;;;;;;;6.50;3.25;;;2.90;99.90;;;;;;5059456;28;20047;-84
2023/04/04 09:31:49;;;;;;;4.20;2.17;;;2.90;99.90;;;;;;5062264;28;20028;-85
2023/04/04 09:34:17;;;;;;;11.18;3.30;;;2.90;99.90;;;;;;5060167;28;20032;-85
2023/04/04 09:36:46;;;;;;;11.65;3.15;;;2.90;99.90;;;;;;5062410;28;20512;-83
2023/04/04 09:39:15;;;;;;;14.38;3.80;;;2.90;99.90;;;;;;5062629;28;20039;-84
2023/04/04 09:41:43;;;;;;;8.23;4.13;;;2.80;99.90;;;;;;5066413;28;20477;-83
2023/04/04 09:44:11;;;;;;;8.95;4.03;;;2.80;99.90;;;;;;5064264;28;20081;-83
2023/04/04 09:46:40;;;;;;;8.95;2.97;;;2.80;99.90;;;;;;5062457;28;20032;-84
2023/04/04 09:49:10;;;;;;;10.30;2.90;;;2.90;99.90;;;;;;5062158;28;20031;-83
2023/04/04 09:51:37;;;;;;;9.80;3.08;;;2.90;99.90;;;;;;5060756;28;20082;-84
2023/04/04 09:54:05;;;;;;;6.22;2.67;;;2.90;99.90;;;;;;5061679;28;20020;-83
2023/04/04 09:56:37;;;;;;;5.85;2.45;;;2.90;99.90;;;;;;5076597;28;20025;-84
2023/04/04 09:59:06;;;;;;;11.40;3.78;;;3.00;99.90;;;;;;5066423;28;20033;-83
2023/04/04 10:01:32;;;;;;;8.32;2.60;;;3.00;99.90;;;;;;5063174;28;20013;-83
2023/04/04 10:03:58;;;;;;;6.32;2.33;;;3.10;99.90;;;;;;5062603;28;20059;-82
2023/04/04 10:06:24;;;;;;;8.00;3.03;;;3.30;99.90;;;;;;5061934;28;20029;-84
2023/04/04 10:08:50;;;;;;;11.07;3.40;;;3.40;99.90;;;;;;5061508;28;20029;-83
2023/04/04 10:11:32;;;;;;;6.47;3.58;;;3.50;99.90;;;;;;5065058;28;20393;-83
2023/04/04 10:13:59;;;;;;;5.30;2.55;;;3.60;99.90;;;;;;5064871;28;20025;-83
2023/04/04 10:16:25;;;;;;;6.75;2.70;;;3.70;99.90;;;;;;5064466;28;20037;-82
2023/04/04 10:18:52;;;;;;;5.55;2.78;;;3.90;99.90;;;;;;5063683;28;20023;-82
2023/04/04 10:21:18;;;;;;;10.70;3.05;;;4.00;99.90;;;;;;5063153;28;20032;-82
2023/04/04 10:23:46;;;;;;;10.43;3.22;;;4.10;99.90;;;;;;5065002;28;20098;-82
2023/04/04 10:26:12;;;;;;;5.60;3.20;;;4.10;99.90;;;;;;5060988;28;20027;-82
2023/04/04 10:28:38;;;;;;;7.38;2.80;;;4.20;99.90;;;;;;5066191;28;20027;-81
2023/04/04 10:31:24;;;;;;;7.18;2.80;;;4.20;99.90;;;;;;5065485;28;20028;-82
2023/04/04 10:34:18;;;;;;;6.88;2.70;;;4.10;99.90;;;;;;5055657;28;20040;-82
2023/04/04 10:36:47;;;;;;;5.78;2.75;;;4.00;99.90;;;;;;5061978;28;20035;-82
2023/04/04 10:39:34;;;;;;;6.50;2.55;;;3.90;99.90;;;;;;5066012;28;20024;-83
2023/04/04 10:42:00;;;;;;;;;;;3.80;99.90;;;;;;5061073;28;20507;-82
2023/04/04 10:44:32;;;;;;;5.43;2.72;;;3.70;99.90;;;;;;5063166;28;20001;-81
2023/04/04 10:47:07;;;;;;;9.05;2.60;;;3.60;99.90;;;;;;5062654;28;20031;-81
2023/04/04 10:49:33;;;;;;;6.82;3.10;;;3.50;99.90;;;;;;5063169;28;20771;-82
2023/04/04 10:51:59;;;;;;;11.77;3.67;;;3.50;99.90;;;;;;5062586;28;20029;-81
2023/04/04 10:54:26;;;;;;;11.02;2.95;;;3.50;99.90;;;;;;5062940;28;20028;-81
2023/04/04 10:56:53;;;;;;;14.15;3.50;;;3.50;99.90;;;;;;5065833;28;20020;-82
2023/04/04 10:59:20;;;;;;;6.50;2.83;;;3.50;99.90;;;;;;5064042;28;20093;-81
2023/04/04 11:02:00;;;;;;;9.73;2.85;;;3.50;99.90;;;;;;5065513;28;20070;-82
2023/04/04 11:04:34;;;;;;;7.93;3.10;;;3.50;99.90;;;;;;5061801;28;20049;-81
2023/04/04 11:07:05;;;;;;;9.40;2.97;;;3.50;99.90;;;;;;5062308;28;20305;-81
2023/04/04 11:09:50;;;;;;;6.60;2.83;;;3.60;99.90;;;;;;5062536;28;20115;-81
2023/04/04 11:12:26;;;;;;;5.63;2.60;;;3.70;99.90;;;;;;5059843;28;20038;-82
2023/04/04 11:14:55;;;;;;;6.43;2.92;;;3.70;99.90;;;;;;5063572;28;20129;-81
2023/04/04 11:18:03;;;;;;;11.93;3.20;;;3.70;99.90;;;;;;5063811;28;20107;-82
2023/04/04 11:20:33;;;;;;;10.23;2.90;;;3.70;99.90;;;;;;5040322;28;20087;-81
2023/04/04 11:23:09;;;;;;;9.43;3.40;;;3.70;99.90;;;;;;5035567;28;20088;-82
2023/04/04 11:25:40;;;;;;;16.58;3.60;;;3.70;99.90;;;;;;5048982;28;20054;-81
2023/04/04 11:28:10;;;;;;;10.95;3.42;;;3.90;99.90;;;;;;5054669;28;20255;-83
2023/04/04 11:30:49;;;;;;;7.20;2.70;;;4.10;99.90;;;;;;5062051;28;20028;-82
2023/04/04 11:33:56;;;;;;;5.45;2.75;;;4.30;99.90;;;;;;5057970;28;20041;-85
2023/04/04 11:36:44;;;;;;;7.60;2.90;;;4.40;99.90;;;;;;5060545;28;20055;-84
2023/04/04 11:39:29;;;;;;;10.85;2.70;;;4.40;99.90;;;;;;5056294;28;20041;-81
2023/04/04 11:42:07;;;;;;;7.85;2.72;;;4.40;99.90;;;;;;5053247;28;20123;-81
2023/04/04 11:44:39;;;;;;;10.90;2.88;;;4.30;99.90;;;;;;5060887;28;20049;-82
2023/04/04 11:47:04;;;;;;;5.90;2.80;;;4.20;99.90;;;;;;5062680;28;20209;-82
2023/04/04 11:49:34;;;;;;;5.57;2.88;;;4.20;99.90;;;;;;5059058;28;20033;-82
2023/04/04 11:52:03;;;;;;;8.52;3.00;;;4.30;99.90;;;;;;5061956;28;20037;-82
2023/04/04 11:54:30;;;;;;;4.28;2.30;;;4.50;99.90;;;;;;5067078;28;20112;-82
2023/04/04 11:56:56;;;;;;;8.75;3.03;;;4.60;99.90;;;;;;5066294;28;20104;-80
2023/04/04 11:59:22;;;;;;;5.93;2.50;;;4.60;99.90;;;;;;5065978;28;20090;-81
2023/04/04 12:01:51;;;;;;;4.05;2.08;;;4.50;99.90;;;;;;5063583;28;20091;-84
2023/04/04 12:04:18;;;;;;;14.93;2.72;;;4.50;99.90;;;;;;5064631;28;20143;-81
2023/04/04 12:06:51;;;;;;;6.97;2.70;;;4.40;99.90;;;;;;5069048;28;20251;-81
2023/04/04 12:09:19;;;;;;;12.20;2.33;;;4.40;99.90;;;;;;5080613;28;20501;-83
2023/04/04 12:11:46;;;;;;;5.32;2.40;;;4.40;99.90;;;;;;5067014;28;20031;-81
2023/04/04 12:14:16;;;;;;;4.75;2.78;;;4.40;99.90;;;;;;5065752;28;20024;-81
2023/04/04 12:16:42;;;;;;;8.13;2.45;;;4.40;99.90;;;;;;5060180;28;20883;-81
2023/04/04 12:19:08;;;;;;;7.25;2.70;;;4.50;99.90;;;;;;5062184;28;20063;-80
2023/04/04 12:21:34;;;;;;;9.00;2.42;;;4.50;99.90;;;;;;5064339;28;20032;-81
2023/04/04 12:23:59;;;;;;;5.28;2.72;;;4.70;99.90;;;;;;5059083;28;20105;-80
2023/04/04 12:26:28;;;;;;;4.43;2.80;;;4.80;99.90;;;;;;5061360;28;20427;-82
2023/04/04 12:28:56;;;;;;;4.20;2.40;;;4.90;99.90;;;;;;5066928;28;20477;-80
2023/04/04 12:31:27;;;;;;;4.80;2.35;;;5.00;99.90;;;;;;5067370;28;20029;-80
2023/04/04 12:33:53;;;;;;;9.75;2.90;;;5.20;99.90;;;;;;5067856;28;20373;-81
2023/04/04 12:36:19;;;;;;;9.90;3.13;;;5.30;99.90;;;;;;5064985;28;20032;-81
2023/04/04 12:39:02;;;;;;;7.40;2.88;;;5.30;99.90;;;;;;5064913;28;20020;-81
2023/04/04 12:41:28;;;;;;;7.95;3.22;;;5.30;99.90;;;;;;5065671;28;20028;-80
2023/04/04 12:44:01;;;;;;;6.10;2.47;;;5.20;99.90;;;;;;5064502;28;20116;-82
2023/04/04 12:46:27;;;;;;;5.75;2.78;;;5.10;99.90;;;;;;5065238;28;20017;-82
2023/04/04 12:48:53;;;;;;;5.95;2.30;;;5.10;99.90;;;;;;5066562;28;20529;-83
2023/04/04 12:51:19;;;;;;;6.55;2.40;;;5.10;99.90;;;;;;5066533;28;20500;-81
2023/04/04 12:53:52;;;;;;;6.60;2.50;;;5.10;99.90;;;;;;5066622;28;20024;-82